Time;durP1;ratioP1;P1;durP2;ratioP2;P2;SDS_P1;SDS_P2;PMS_P1;PMS_P2;Temp;Humidity;BMP_temperature;BMP_pressure;BME280_temperature;BME280_humidity;BME280_pressure;Samples;Min_cycle;Max_cycle;Signal;HPM_P1;HPM_P2
2022/05/31 00:00:28;;;;;;;;;;;;;;;9.45;100.00;-25331.22;5058990;28;19923;-77
2022/05/31 00:02:55;;;;;;;;;;;;;;;9.34;100.00;-25328.28;5036836;28;19921;-78
2022/05/31 00:05:20;;;;;;;;;;;;;;;9.25;100.00;-25325.50;5034530;28;19921;-76
2022/05/31 00:07:46;;;;;;;;;;;;;;;9.16;100.00;-25322.97;5052662;28;19917;-77
2022/05/31 00:10:12;;;;;;;;;;;;;;;9.17;100.00;-25323.28;5054153;28;19921;-77
2022/05/31 00:12:38;;;;;;;;;;;;;;;9.18;100.00;-25323.56;5051612;28;20563;-78
2022/05/31 00:15:03;;;;;;;;;;;;;;;9.21;100.00;-25324.44;5071838;28;20013;-77
2022/05/31 00:17:30;;;;;;;;;;;;;;;9.18;100.00;-25323.56;5058351;28;19917;-77
2022/05/31 00:19:55;;;;;;;;;;;;;;;9.14;100.00;-25322.41;5036766;28;19921;-77
2022/05/31 00:22:22;;;;;;;;;;;;;;;9.19;100.00;-25323.72;5051944;28;19932;-78
2022/05/31 00:24:48;;;;;;;;;;;;;;;9.19;100.00;-25323.88;5059917;28;19948;-78
2022/05/31 00:27:14;;;;;;;;;;;;;;;9.16;100.00;-25323.13;5050815;28;19925;-78
2022/05/31 00:29:39;;;;;;;;;;;;;;;9.19;100.00;-25323.88;5053465;28;19924;-78
2022/05/31 00:32:07;;;;;;;;;;;;;;;9.15;100.00;-25322.84;5042771;28;19921;-78
2022/05/31 00:34:35;;;;;;;;;;;;;;;9.15;100.00;-25322.69;5051209;28;19917;-78
2022/05/31 00:37:01;;;;;;;;;;;;;;;9.20;100.00;-25324.00;5052137;28;19966;-78
2022/05/31 00:39:26;;;;;;;;;;;;;;;9.25;100.00;-25325.63;5052442;28;20493;-79
2022/05/31 00:42:21;;;;;;;;;;;;;;;9.23;100.00;-25325.03;5053229;28;19917;-78
2022/05/31 00:44:47;;;;;;;;;;;;;;;9.18;100.00;-25323.44;5046266;28;20056;-78
2022/05/31 00:47:15;;;;;;;;;;;;;;;9.15;100.00;-25322.69;5066061;28;19960;-78
2022/05/31 00:49:47;;;;;;;;;;;;;;;9.07;100.00;-25320.34;5052093;28;19928;-78
2022/05/31 00:52:15;;;;;;;;;;;;;;;9.06;100.00;-25320.19;5042010;28;19975;-78
2022/05/31 00:54:49;;;;;;;;;;;;;;;9.01;100.00;-25318.56;5056684;28;19958;-78
2022/05/31 00:57:14;;;;;;;;;;;;;;;8.99;100.00;-25318.13;5034503;28;19922;-78
2022/05/31 00:59:59;;;;;;;;;;;;;;;8.97;100.00;-25317.53;5031935;28;19921;-78
2022/05/31 01:02:25;;;;;;;;;;;;;;;8.89;100.00;-25315.34;5057793;28;19928;-78
2022/05/31 01:04:55;;;;;;;;;;;;;;;8.88;100.00;-25314.91;5038884;28;19916;-77
2022/05/31 01:07:20;;;;;;;;;;;;;;;8.91;100.00;-25315.94;5062422;28;20337;-78
2022/05/31 01:09:46;;;;;;;;;;;;;;;8.93;100.00;-25316.53;5071401;28;19927;-77
2022/05/31 01:12:12;;;;;;;;;;;;;;;9.03;100.00;-25319.16;5052277;28;19921;-78
2022/05/31 01:14:40;;;;;;;;;;;;;;;9.10;100.00;-25321.22;5053674;28;20102;-78
2022/05/31 01:17:07;;;;;;;;;;;;;;;9.09;100.00;-25321.06;5053618;28;19917;-78
2022/05/31 01:22:17;;;;;;;;;;;;;;;9.15;100.00;-25322.69;5062146;28;19920;-78
2022/05/31 01:24:51;;;;;;;;;;;;;;;9.14;100.00;-25322.41;5061439;28;19921;-78
2022/05/31 01:27:42;;;;;;;;;;;;;;;9.12;100.00;-25321.81;5052400;28;20007;-78
2022/05/31 01:30:09;;;;;;;;;;;;;;;9.07;100.00;-25320.34;5049532;28;19920;-78
2022/05/31 01:32:37;;;;;;;;;;;;;;;8.95;100.00;-25317.09;5051897;28;20007;-79
2022/05/31 01:35:06;;;;;;;;;;;;;;;8.87;100.00;-25314.75;5048415;28;19917;-79
2022/05/31 01:37:45;;;;;;;;;;;;;;;8.91;100.00;-25315.94;5032222;28;19917;-78
2022/05/31 01:40:13;;;;;;;;;;;;;;;8.84;100.00;-25313.88;5058080;28;20377;-78
2022/05/31 01:42:52;;;;;;;;;;;;;;;8.83;100.00;-25313.56;5072399;28;19916;-78
2022/05/31 01:45:21;;;;;;;;;;;;;;;8.80;100.00;-25312.84;5063492;28;19917;-78
2022/05/31 01:47:47;;;;;;;;;;;;;;;8.78;100.00;-25312.25;5052632;28;19921;-78
2022/05/31 01:50:18;;;;;;;;;;;;;;;8.76;100.00;-25311.50;5038891;28;19924;-78
2022/05/31 01:52:45;;;;;;;;;;;;;;;8.77;100.00;-25311.81;5045218;28;19917;-78
2022/05/31 01:55:12;;;;;;;;;;;;;;;8.77;100.00;-25311.94;5071809;28;20003;-78
2022/05/31 01:57:40;;;;;;;;;;;;;;;8.74;100.00;-25311.06;5070573;28;20046;-78
2022/05/31 02:00:08;;;;;;;;;;;;;;;8.76;100.00;-25311.50;5072131;28;20399;-78
2022/05/31 02:02:33;;;;;;;;;;;;;;;8.78;100.00;-25312.09;5069764;28;19916;-78
2022/05/31 02:04:58;;;;;;;;;;;;;;;8.65;100.00;-25308.41;5061574;28;19917;-78
2022/05/31 02:07:25;;;;;;;;;;;;;;;8.57;100.00;-25306.22;5072419;28;20011;-78
2022/05/31 02:09:51;;;;;;;;;;;;;;;8.56;100.00;-25305.78;5071834;28;20011;-78
2022/05/31 02:12:17;;;;;;;;;;;;;;;8.53;100.00;-25305.03;5051422;28;19925;-78
2022/05/31 02:14:43;;;;;;;;;;;;;;;8.46;100.00;-25302.84;5031706;28;19952;-78
2022/05/31 02:17:08;;;;;;;;;;;;;;;8.51;100.00;-25304.44;5032293;28;19917;-78
2022/05/31 02:19:34;;;;;;;;;;;;;;;8.58;100.00;-25306.50;5038550;28;19962;-78
2022/05/31 02:22:00;;;;;;;;;;;;;;;8.57;100.00;-25306.22;5071958;28;19912;-77
2022/05/31 02:24:28;;;;;;;;;;;;;;;8.57;100.00;-25306.22;5072286;28;19940;-78
2022/05/31 02:26:54;;;;;;;;;;;;;;;8.60;100.00;-25307.09;5071811;28;20042;-78
2022/05/31 02:29:21;;;;;;;;;;;;;;;8.62;100.00;-25307.69;5071848;28;20027;-77
2022/05/31 02:31:46;;;;;;;;;;;;;;;8.64;100.00;-25308.13;5061540;28;19920;-78
2022/05/31 02:34:20;;;;;;;;;;;;;;;8.64;100.00;-25308.13;5079149;28;19965;-77
2022/05/31 02:36:46;;;;;;;;;;;;;;;8.59;100.00;-25306.81;5079053;28;19916;-78
2022/05/31 02:39:12;;;;;;;;;;;;;;;8.69;100.00;-25309.47;5063826;28;19921;-78
2022/05/31 02:41:37;;;;;;;;;;;;;;;8.73;100.00;-25310.63;5058319;28;19926;-78
2022/05/31 02:44:03;;;;;;;;;;;;;;;8.76;100.00;-25311.66;5058210;28;19917;-77
2022/05/31 02:46:28;;;;;;;;;;;;;;;8.76;100.00;-25311.66;5074021;28;20091;-77
2022/05/31 02:48:53;;;;;;;;;;;;;;;8.77;100.00;-25311.94;5056446;28;19922;-78
2022/05/31 02:51:18;;;;;;;;;;;;;;;8.81;100.00;-25313.00;5058402;28;19969;-76
2022/05/31 02:53:45;;;;;;;;;;;;;;;8.87;100.00;-25314.59;5060910;28;19939;-77
2022/05/31 02:56:10;;;;;;;;;;;;;;;8.89;100.00;-25315.19;5066112;28;19916;-77
2022/05/31 02:58:35;;;;;;;;;;;;;;;8.90;100.00;-25315.63;5066688;28;19950;-78
2022/05/31 03:01:01;;;;;;;;;;;;;;;8.87;100.00;-25314.75;5074821;28;19971;-77
2022/05/31 03:03:27;;;;;;;;;;;;;;;8.91;100.00;-25315.78;5078085;28;19923;-78
2022/05/31 03:05:54;;;;;;;;;;;;;;;8.90;100.00;-25315.63;5063061;28;19924;-78
2022/05/31 03:08:19;;;;;;;;;;;;;;;8.90;100.00;-25315.47;5068249;28;20090;-77
2022/05/31 03:10:47;;;;;;;;;;;;;;;8.87;100.00;-25314.75;5073959;28;20101;-78
2022/05/31 03:13:14;;;;;;;;;;;;;;;8.84;100.00;-25313.88;5082902;28;19916;-78
2022/05/31 03:15:40;;;;;;;;;;;;;;;8.85;100.00;-25314.16;5087923;28;19921;-78
2022/05/31 03:18:08;;;;;;;;;;;;;;;8.87;100.00;-25314.59;5061890;28;20291;-78
2022/05/31 03:20:36;;;;;;;;;;;;;;;8.88;100.00;-25314.91;5060153;28;19920;-77
2022/05/31 03:23:07;;;;;;;;;;;;;;;8.84;100.00;-25313.72;5073799;28;20098;-77
2022/05/31 03:25:33;;;;;;;;;;;;;;;8.78;100.00;-25312.25;5057966;28;19917;-78
2022/05/31 03:28:01;;;;;;;;;;;;;;;8.75;100.00;-25311.22;5057549;28;19927;-78
2022/05/31 03:30:29;;;;;;;;;;;;;;;8.76;100.00;-25311.50;5044888;28;19921;-78
2022/05/31 03:33:29;;;;;;;;;;;;;;;8.85;100.00;-25314.16;5037009;28;19925;-79
2022/05/31 03:36:28;;;;;;;;;;;;;;;8.89;100.00;-25315.19;5088721;28;19955;-79
2022/05/31 03:39:40;;;;;;;;;;;;;;;8.83;100.00;-25313.44;5020521;28;19943;-79
2022/05/31 03:42:45;;;;;;;;;;;;;;;8.89;100.00;-25315.34;5034918;28;19917;-79
2022/05/31 03:45:34;;;;;;;;;;;;;;;8.95;100.00;-25316.97;5029062;28;19925;-79
2022/05/31 03:48:54;;;;;;;;;;;;;;;8.97;100.00;-25317.69;5033787;28;20048;-79
2022/05/31 03:51:43;;;;;;;;;;;;;;;9.04;100.00;-25319.59;5032326;28;20365;-79
2022/05/31 03:54:49;;;;;;;;;;;;;;;9.10;100.00;-25321.38;5062184;28;19917;-78
2022/05/31 03:57:59;;;;;;;;;;;;;;;9.13;100.00;-25322.09;5059462;28;19938;-79
2022/05/31 04:00:49;;;;;;;;;;;;;;;9.23;100.00;-25324.91;5073304;28;19916;-79
2022/05/31 04:06:50;;;;;;;;;;;;;;;9.26;100.00;-25325.78;5037682;28;19959;-79
2022/05/31 04:09:40;;;;;;;;;;;;;;;9.34;100.00;-25328.28;5031423;28;19921;-79
2022/05/31 04:12:35;;;;;;;;;;;;;;;9.39;100.00;-25329.47;5033199;28;19928;-79
2022/05/31 04:15:29;;;;;;;;;;;;;;;9.31;100.00;-25327.41;5016546;28;19956;-79
2022/05/31 04:18:17;;;;;;;;;;;;;;;9.38;100.00;-25329.16;5057048;28;20007;-79
2022/05/31 04:20:43;;;;;;;;;;;;;;;9.42;100.00;-25330.34;5055985;28;19948;-79
2022/05/31 04:26:03;;;;;;;;;;;;;;;9.49;100.00;-25332.38;5072470;28;19923;-78
2022/05/31 04:28:28;;;;;;;;;;;;;;;9.57;100.00;-25334.75;5056001;28;19916;-78
2022/05/31 04:30:55;;;;;;;;;;;;;;;9.52;100.00;-25333.28;5021026;28;19928;-78
2022/05/31 04:33:21;;;;;;;;;;;;;;;9.60;100.00;-25335.63;5034923;28;20361;-77
2022/05/31 04:35:47;;;;;;;;;;;;;;;9.55;100.00;-25334.16;5035263;28;19921;-78
2022/05/31 04:38:12;;;;;;;;;;;;;;;9.61;100.00;-25335.91;5069334;28;19966;-79
2022/05/31 04:40:37;;;;;;;;;;;;;;;9.51;100.00;-25332.97;5058094;28;19921;-79
2022/05/31 04:43:03;;;;;;;;;;;;;;;9.58;100.00;-25335.03;5047263;28;20492;-78
2022/05/31 04:45:28;;;;;;;;;;;;;;;9.66;100.00;-25337.38;5053449;28;19916;-78
2022/05/31 04:47:53;;;;;;;;;;;;;;;9.80;100.00;-25341.22;5082991;28;19927;-78
2022/05/31 04:50:18;;;;;;;;;;;;;;;9.76;100.00;-25340.03;5074004;28;20322;-78
2022/05/31 04:52:44;;;;;;;;;;;;;;;9.92;100.00;-25344.72;5036531;28;19924;-78
2022/05/31 04:55:09;;;;;;;;;;;;;;;10.06;100.00;-25348.69;5036278;28;19923;-78
2022/05/31 04:57:35;;;;;;;;;;;;;;;10.64;100.00;-25365.13;5054055;28;19990;-79
2022/05/31 05:00:01;;;;;;;;;;;;;;;10.95;100.00;-25374.22;5055968;28;19916;-78
2022/05/31 05:02:26;;;;;;;;;;;;;;;10.87;100.00;-25371.75;5036372;28;19943;-78
2022/05/31 05:04:53;;;;;;;;;;;;;;;11.14;100.00;-25379.66;5036268;28;19928;-78
2022/05/31 05:07:18;;;;;;;;;;;;;;;10.96;100.00;-25374.38;5053822;28;20373;-78
2022/05/31 05:09:44;;;;;;;;;;;;;;;10.70;100.00;-25367.03;5084348;28;19978;-77
2022/05/31 05:12:09;;;;;;;;;;;;;;;10.66;100.00;-25365.72;5067683;28;19920;-76
2022/05/31 05:14:36;;;;;;;;;;;;;;;10.60;100.00;-25364.25;5072718;28;20416;-77
2022/05/31 05:17:02;;;;;;;;;;;;;;;10.43;100.00;-25359.13;5056378;28;20049;-77
2022/05/31 05:19:27;;;;;;;;;;;;;;;10.48;100.00;-25360.72;5055154;28;19946;-78
2022/05/31 05:21:52;;;;;;;;;;;;;;;10.52;100.00;-25361.75;5060050;28;20373;-79
2022/05/31 05:24:20;;;;;;;;;;;;;;;10.48;100.00;-25360.72;5041713;28;19920;-77
2022/05/31 05:26:45;;;;;;;;;;;;;;;10.61;100.00;-25364.41;5034898;28;19996;-77
2022/05/31 05:31:57;;;;;;;;;;;;;;;10.76;100.00;-25368.81;5053190;28;20000;-79
2022/05/31 05:34:30;;;;;;;;;;;;;;;10.88;100.00;-25372.03;5019166;28;20365;-78
2022/05/31 05:36:55;;;;;;;;;;;;;;;10.80;100.00;-25369.84;5042680;28;19921;-78
2022/05/31 05:39:22;;;;;;;;;;;;;;;10.95;100.00;-25374.09;5034358;28;19935;-75
2022/05/31 05:41:47;;;;;;;;;;;;;;;10.99;100.00;-25375.09;5049815;28;19920;-76
2022/05/31 05:44:12;;;;;;;;;;;;;;;10.96;100.00;-25374.53;5031997;28;19927;-77
2022/05/31 05:46:37;;;;;;;;;;;;;;;11.16;100.00;-25380.09;5054595;28;19923;-77
2022/05/31 05:49:03;;;;;;;;;;;;;;;11.13;100.00;-25379.34;5054632;28;20269;-77
2022/05/31 05:51:29;;;;;;;;;;;;;;;11.41;100.00;-25387.13;5072326;28;20346;-77
2022/05/31 05:53:56;;;;;;;;;;;;;;;11.63;100.00;-25393.41;5054581;28;20003;-77
2022/05/31 05:56:21;;;;;;;;;;;;;;;11.63;100.00;-25393.41;5053956;28;19916;-77
2022/05/31 05:58:47;;;;;;;;;;;;;;;11.79;100.00;-25397.97;5053774;28;19962;-78
2022/05/31 06:01:12;;;;;;;;;;;;;;;11.98;100.00;-25403.38;5054421;28;20339;-77
2022/05/31 06:03:44;;;;;;;;;;;;;;;11.92;100.00;-25401.63;5054033;28;19916;-77
2022/05/31 06:06:13;;;;;;;;;;;;;;;12.17;100.00;-25408.78;5054439;28;19966;-77
2022/05/31 06:08:42;;;;;;;;;;;;;;;12.04;100.00;-25405.13;5072378;28;19921;-78
2022/05/31 06:11:16;;;;;;;;;;;;;;;12.14;100.00;-25408.06;5077728;28;19972;-76
2022/05/31 06:14:01;;;;;;;;;;;;;;;12.45;100.00;-25416.84;5070046;28;19912;-78
2022/05/31 06:16:31;;;;;;;;;;;;;;;12.73;100.00;-25422.97;5089626;28;19977;-78
2022/05/31 06:18:59;;;;;;;;;;;;;;;12.74;100.00;-21818.94;5073024;28;20392;-76
2022/05/31 06:21:24;;;;;;;;;;;;;;;12.78;100.00;-19524.41;5092111;28;19916;-79
2022/05/31 06:23:53;;;;;;;;;;;;;;;12.80;100.00;-14929.47;5089501;28;20328;-78
2022/05/31 06:26:18;;;;;;;;;;;;;;;12.88;100.00;-12301.78;5074559;28;19916;-77
2022/05/31 06:28:44;;;;;;;;;;;;;;;13.05;100.00;-9671.91;5069926;28;19924;-79
2022/05/31 06:31:10;;;;;;;;;;;;;;;13.12;100.00;-9672.16;5053760;28;19921;-79
2022/05/31 06:33:36;;;;;;;;;;;;;;;13.35;100.00;-8026.75;5072178;28;20406;-80
2022/05/31 06:36:02;;;;;;;;;;;;;;;13.39;100.00;-5061.69;5068168;28;19974;-80
2022/05/31 06:38:29;;;;;;;;;;;;;;;13.56;100.00;-4071.88;5072315;28;19928;-77
2022/05/31 06:40:56;;;;;;;;;;;;;;;13.51;100.00;-2093.28;5074388;28;19916;-77
2022/05/31 06:43:22;;;;;;;;;;;;;;;13.65;100.00;878.94;5073681;28;20012;-78
2022/05/31 06:45:48;;;;;;;;;;;;;;;13.87;100.00;2864.28;5090364;28;19916;-76
2022/05/31 06:48:13;;;;;;;;;;;;;;;14.29;100.00;5517.97;5073292;28;20502;-75
2022/05/31 06:50:38;;;;;;;;;;;;;;;14.20;100.00;12471.63;5073098;28;19916;-76
2022/05/31 06:58:31;;;;;;;;;;;;;;;14.50;100.00;25104.88;5075568;28;20090;-75
2022/05/31 07:01:01;;;;;;;;;;;;;;;14.47;100.00;28432.28;5056272;28;20030;-75
2022/05/31 07:03:27;;;;;;;;;;;;;;;15.58;100.00;32167.16;5056118;28;19920;-75
2022/05/31 07:06:00;;;;;;;;;;;;;;;16.32;100.00;60733.00;5072368;28;20285;-75
2022/05/31 07:08:25;;;;;;;;;;;;;;;16.65;100.00;146919.06;5072693;28;19924;-75
2022/05/31 07:10:51;;;;;;;;;;;;;;;16.18;100.00;146802.81;5072113;28;20421;-75
2022/05/31 07:13:17;;;;;;;;;;;;;;;16.78;100.00;146952.28;5071888;28;19922;-76
2022/05/31 07:15:42;;;;;;;;;;;;;;;16.40;100.00;146856.47;5072141;28;20078;-75
2022/05/31 07:18:08;;;;;;;;;;;;;;;17.53;100.00;147138.94;5075096;28;20372;-74
2022/05/31 07:20:33;;;;;;;;;;;;;;;17.84;100.00;147214.41;5076007;28;19923;-73
2022/05/31 07:22:58;;;;;;;;;;;;;;;18.27;100.00;147323.16;5075237;28;20000;-74
2022/05/31 07:25:24;;;;;;;;;;;;;;;18.30;100.00;147329.53;5076056;28;19924;-77
2022/05/31 07:27:50;;;;;;;;;;;;;;;18.66;100.00;147419.13;5076316;28;19931;-74
2022/05/31 07:30:15;;;;;;;;;;;;;;;18.14;100.00;147289.88;5076188;28;20037;-76
2022/05/31 07:32:42;;;;;;;;;;;;;;;18.55;100.00;147390.94;5076052;28;20053;-74
2022/05/31 07:35:07;;;;;;;;;;;;;;;18.73;100.00;147435.72;5073581;28;19922;-74
2022/05/31 07:37:32;;;;;;;;;;;;;;;19.18;100.00;147548.41;5076655;28;20005;-75
2022/05/31 07:39:58;;;;;;;;;;;;;;;18.51;100.00;147382.00;5076458;28;20015;-75
2022/05/31 07:42:23;;;;;;;;;;;;;;;18.00;100.00;147255.34;5075710;28;19940;-74
2022/05/31 07:44:52;;;;;;;;;;;;;;;17.79;100.00;147202.88;5075311;28;19921;-74
2022/05/31 07:47:17;;;;;;;;;;;;;;;18.47;100.00;147371.75;5076052;28;19919;-75
2022/05/31 07:49:42;;;;;;;;;;;;;;;19.48;100.00;147622.63;5058160;28;19935;-79
2022/05/31 07:52:09;;;;;;;;;;;;;;;20.34;100.00;147836.53;5094290;28;19998;-77
2022/05/31 07:54:34;;;;;;;;;;;;;;;21.02;100.00;148005.75;5075317;28;20434;-76
2022/05/31 07:57:04;;;;;;;;;;;;;;;20.00;100.00;147753.31;5093846;28;19920;-78
2022/05/31 07:59:31;;;;;;;;;;;;;;;19.82;100.00;147708.47;5076054;28;20582;-77
2022/05/31 08:01:56;;;;;;;;;;;;;;;19.61;100.00;147655.94;5076004;28;20310;-78
2022/05/31 08:04:22;;;;;;;;;;;;;;;19.87;100.00;147721.31;5059477;28;20415;-77
2022/05/31 08:06:49;;;;;;;;;;;;;;;20.01;100.00;147755.88;5093968;28;20368;-77
2022/05/31 08:09:14;;;;;;;;;;;;;;;20.19;100.00;147799.44;5076585;28;19923;-77
2022/05/31 08:11:39;;;;;;;;;;;;;;;19.90;100.00;147727.69;5076744;28;19916;-75
2022/05/31 08:14:05;;;;;;;;;;;;;;;19.49;100.00;147626.47;5076734;28;19916;-78
2022/05/31 08:16:30;;;;;;;;;;;;;;;18.73;100.00;147437.00;5075379;28;19916;-76
2022/05/31 08:18:56;;;;;;;;;;;;;;;18.14;100.00;147289.88;5075235;28;19917;-75
2022/05/31 08:21:27;;;;;;;;;;;;;;;18.85;100.00;147466.50;5075435;28;20299;-73
2022/05/31 08:23:55;;;;;;;;;;;;;;;18.98;100.00;147499.75;5074252;28;19920;-76
2022/05/31 08:26:20;;;;;;;;;;;;;;;19.43;100.00;147609.84;5075111;28;19920;-75
2022/05/31 08:28:46;;;;;;;;;;;;;;;20.45;100.00;147866.03;5074232;28;19961;-78
2022/05/31 08:31:12;;;;;;;;;;;;;;;20.31;100.00;147830.16;5074336;28;20121;-76
2022/05/31 08:33:40;;;;;;;;;;;;;;;19.82;100.00;147708.47;5074742;28;19920;-77
2022/05/31 08:36:06;;;;;;;;;;;;;;;20.65;100.00;147914.78;5075730;28;20478;-76
2022/05/31 08:38:32;;;;;;;;;;;;;;;20.73;100.00;147935.25;5074929;28;19991;-76
2022/05/31 08:41:03;;;;;;;;;;;;;;;20.69;100.00;147925.00;5077500;28;20280;-76
2022/05/31 08:43:52;;;;;;;;;;;;;;;21.49;100.00;148125.00;5079682;28;20380;-76
2022/05/31 08:46:23;;;;;;;;;;;;;;;22.88;100.00;148471.34;5032039;28;19920;-76
2022/05/31 08:48:59;;;;;;;;;;;;;;;21.82;100.00;148207.06;5075692;28;19962;-75
2022/05/31 08:57:08;;;;;;;;;;;;;;;22.21;100.00;148304.53;5102770;28;20439;-77
2022/05/31 08:59:52;;;;;;;;;;;;;;;22.60;100.00;148400.78;5082771;28;19920;-78
2022/05/31 09:02:22;;;;;;;;;;;;;;;22.84;100.00;148459.81;5075874;28;19916;-76
2022/05/31 09:05:03;;;;;;;;;;;;;;;23.02;100.00;148506.00;5075236;28;19916;-76
2022/05/31 09:07:43;;;;;;;;;;;;;;;22.37;100.00;148344.38;5074829;28;20405;-78
2022/05/31 09:10:19;;;;;;;;;;;;;;;22.56;100.00;148390.56;5075028;28;19955;-77
2022/05/31 09:12:49;;;;;;;;;;;;;;;23.09;100.00;148524.03;5074971;28;19916;-76
2022/05/31 09:15:19;;;;;;;;;;;;;;;23.37;100.00;148592.03;5074805;28;19916;-78
2022/05/31 09:18:04;;;;;;;;;;;;;;;22.93;100.00;148484.22;5074646;28;19969;-79
2022/05/31 09:20:35;;;;;;;;;;;;;;;21.99;100.00;148249.38;5074559;28;19916;-76
2022/05/31 09:23:02;;;;;;;;;;;;;;;22.45;100.00;148362.28;5074668;28;20249;-78
2022/05/31 09:25:32;;;;;;;;;;;;;;;21.64;100.00;148160.91;5072624;28;19952;-75
2022/05/31 09:28:04;;;;;;;;;;;;;;;20.98;100.00;147996.78;5073918;28;19960;-77
2022/05/31 09:30:36;;;;;;;;;;;;;;;21.17;100.00;148045.47;5074708;28;20295;-77
2022/05/31 09:33:20;;;;;;;;;;;;;;;20.49;100.00;147873.72;5074995;28;19926;-77
2022/05/31 09:35:48;;;;;;;;;;;;;;;21.04;100.00;148012.16;5074910;28;19923;-77
2022/05/31 09:38:32;;;;;;;;;;;;;;;22.07;100.00;148268.63;5075356;28;20401;-79
2022/05/31 09:41:11;;;;;;;;;;;;;;;21.60;100.00;148150.66;5074915;28;19920;-78
2022/05/31 09:43:41;;;;;;;;;;;;;;;22.11;100.00;148277.59;5074579;28;20007;-79
2022/05/31 09:46:11;;;;;;;;;;;;;;;22.59;100.00;148398.19;5074341;28;19919;-80
2022/05/31 09:48:44;;;;;;;;;;;;;;;22.82;91.44;148454.69;5073378;28;19927;-78
2022/05/31 09:51:12;;;;;;;;;;;;;;;22.67;97.83;148417.44;5073703;28;20246;-78
2022/05/31 09:59:11;;;;;;;;;;;;;;;20.33;100.00;147834.00;5093649;28;19922;-76
2022/05/31 10:01:44;;;;;;;;;;;;;;;20.02;100.00;147757.16;5074153;28;19920;-78
2022/05/31 10:04:13;;;;;;;;;;;;;;;19.32;100.00;147584.22;5074148;28;20362;-79
2022/05/31 10:06:50;;;;;;;;;;;;;;;18.82;100.00;147458.78;5073209;28;20279;-77
2022/05/31 10:09:17;;;;;;;;;;;;;;;19.14;100.00;147539.47;5073999;28;20014;-75
2022/05/31 10:11:46;;;;;;;;;;;;;;;18.90;100.00;147479.28;5073503;28;19920;-77
2022/05/31 10:14:31;;;;;;;;;;;;;;;20.03;100.00;147761.00;5074247;28;20463;-77
2022/05/31 10:17:11;;;;;;;;;;;;;;;19.92;100.00;147732.84;5073084;28;19920;-80
2022/05/31 10:19:37;;;;;;;;;;;;;;;20.44;100.00;147862.19;5073911;28;19969;-75
2022/05/31 10:22:18;;;;;;;;;;;;;;;20.79;100.00;147949.38;5073996;28;20380;-77
2022/05/31 10:24:45;;;;;;;;;;;;;;;20.88;100.00;147971.13;5074087;28;19916;-77
2022/05/31 10:27:21;;;;;;;;;;;;;;;21.46;100.00;148116.00;5071902;28;19920;-76
2022/05/31 10:29:49;;;;;;;;;;;;;;;21.19;100.00;148048.03;5073619;28;19924;-77
2022/05/31 10:32:32;;;;;;;;;;;;;;;21.72;100.00;148181.44;5073460;28;20019;-79
2022/05/31 10:35:16;;;;;;;;;;;;;;;21.32;100.00;148082.66;5074222;28;20018;-78
2022/05/31 10:37:55;;;;;;;;;;;;;;;20.79;100.00;147950.66;5073465;28;19916;-79
2022/05/31 10:40:22;;;;;;;;;;;;;;;20.35;100.00;147840.38;5073490;28;20399;-81
2022/05/31 10:42:51;;;;;;;;;;;;;;;20.35;100.00;147840.38;5074252;28;19916;-74
2022/05/31 10:45:26;;;;;;;;;;;;;;;19.85;100.00;147714.88;5074664;28;19923;-76
2022/05/31 10:47:55;;;;;;;;;;;;;;;20.25;100.00;147814.78;5075247;28;19916;-79
2022/05/31 10:50:21;;;;;;;;;;;;;;;20.16;100.00;147791.72;5073719;28;19935;-78
2022/05/31 10:52:55;;;;;;;;;;;;;;;20.21;100.00;147804.53;5073579;28;19922;-78
2022/05/31 10:55:39;;;;;;;;;;;;;;;19.93;100.00;147735.38;5078038;28;19958;-78
2022/05/31 10:58:11;;;;;;;;;;;;;;;19.66;100.00;147668.72;5077925;28;19916;-77
2022/05/31 11:00:42;;;;;;;;;;;;;;;19.40;100.00;147602.16;5077765;28;19912;-79
2022/05/31 11:03:28;;;;;;;;;;;;;;;19.53;100.00;147636.75;5077863;28;20364;-78
2022/05/31 11:05:53;;;;;;;;;;;;;;;18.67;100.00;147421.63;5077775;28;19912;-76
2022/05/31 11:13:59;;;;;;;;;;;;;;;18.47;100.00;147371.75;5095594;28;20375;-77
2022/05/31 11:16:24;;;;;;;;;;;;;;;18.45;100.00;147366.63;5077764;28;20014;-76
2022/05/31 11:18:56;;;;;;;;;;;;;;;18.43;100.00;147361.53;5077720;28;20019;-77
2022/05/31 11:21:41;;;;;;;;;;;;;;;18.31;100.00;147332.09;5078369;28;19916;-79
2022/05/31 11:24:09;;;;;;;;;;;;;;;18.28;100.00;147325.69;5077126;28;19916;-79
2022/05/31 11:26:50;;;;;;;;;;;;;;;18.07;100.00;147271.97;5076360;28;19916;-80
2022/05/31 11:29:24;;;;;;;;;;;;;;;18.11;100.00;147283.47;5076105;28;19920;-79
2022/05/31 11:32:08;;;;;;;;;;;;;;;18.27;100.00;147321.84;5076844;28;19955;-77
2022/05/31 11:34:54;;;;;;;;;;;;;;;18.53;100.00;147387.09;5076956;28;20014;-78
2022/05/31 11:37:19;;;;;;;;;;;;;;;18.64;100.00;147415.28;5077448;28;20002;-79
2022/05/31 11:40:03;;;;;;;;;;;;;;;18.61;100.00;147407.59;5076806;28;19958;-75
2022/05/31 11:42:38;;;;;;;;;;;;;;;18.46;100.00;147369.22;5076312;28;19912;-75
2022/05/31 11:45:30;;;;;;;;;;;;;;;18.15;100.00;147292.44;5076794;28;19916;-75
2022/05/31 11:48:20;;;;;;;;;;;;;;;18.07;100.00;147271.97;5076106;28;19922;-76
2022/05/31 11:50:46;;;;;;;;;;;;;;;17.92;100.00;147236.16;5076412;28;19916;-76
2022/05/31 11:53:24;;;;;;;;;;;;;;;18.11;100.00;147282.22;5075629;28;19974;-76
2022/05/31 11:55:50;;;;;;;;;;;;;;;17.90;100.00;147231.06;5074732;28;19924;-76
2022/05/31 11:58:25;;;;;;;;;;;;;;;17.69;100.00;147177.31;5075846;28;19916;-75
2022/05/31 12:01:13;;;;;;;;;;;;;;;17.73;100.00;147188.81;5075108;28;19916;-76
2022/05/31 12:03:45;;;;;;;;;;;;;;;17.86;100.00;147219.50;5074161;28;19916;-76
2022/05/31 12:06:14;;;;;;;;;;;;;;;17.72;100.00;147184.97;5076292;28;19930;-76
2022/05/31 12:08:39;;;;;;;;;;;;;;;17.73;100.00;147188.81;5075425;28;19939;-75
2022/05/31 12:11:14;;;;;;;;;;;;;;;17.96;100.00;147243.84;5093985;28;20283;-76
2022/05/31 12:13:44;;;;;;;;;;;;;;;17.66;100.00;147169.63;5075403;28;19951;-76
2022/05/31 12:16:10;;;;;;;;;;;;;;;17.96;100.00;147243.84;5075333;28;19923;-76
2022/05/31 12:18:47;;;;;;;;;;;;;;;18.12;100.00;147284.78;5075420;28;19912;-76
2022/05/31 12:21:23;;;;;;;;;;;;;;;18.16;100.00;147293.72;5075569;28;19920;-77
2022/05/31 12:24:15;;;;;;;;;;;;;;;17.98;100.00;147248.97;5092520;28;19912;-75
2022/05/31 12:26:40;;;;;;;;;;;;;;;17.99;100.00;147252.81;5068459;28;19973;-76
2022/05/31 12:29:06;;;;;;;;;;;;;;;17.89;100.00;147228.47;5074441;28;20551;-76
2022/05/31 12:31:33;;;;;;;;;;;;;;;17.90;100.00;147231.06;5074219;28;20278;-75
2022/05/31 12:34:14;;;;;;;;;;;;;;;18.01;100.00;147256.66;5074746;28;20394;-75
2022/05/31 12:36:59;;;;;;;;;;;;;;;17.87;100.00;147222.06;5074030;28;19976;-75
2022/05/31 12:39:30;;;;;;;;;;;;;;;17.77;100.00;147199.06;5074595;28;20375;-76
2022/05/31 12:41:55;;;;;;;;;;;;;;;17.33;100.00;147089.06;5074099;28;19939;-76
2022/05/31 12:44:30;;;;;;;;;;;;;;;17.23;100.00;147064.81;5074075;28;20360;-77
2022/05/31 12:47:09;;;;;;;;;;;;;;;16.81;100.00;146958.66;5075153;28;19922;-75
2022/05/31 12:49:35;;;;;;;;;;;;;;;16.79;100.00;146953.56;5075503;28;19916;-79
2022/05/31 12:54:49;;;;;;;;;;;;;;;16.39;100.00;146853.91;5093942;28;20260;-76
2022/05/31 13:00:41;;;;;;;;;;;;;;;16.44;100.00;146866.69;5093004;28;19922;-79
2022/05/31 13:03:26;;;;;;;;;;;;;;;16.39;100.00;146853.91;5074638;28;20410;-78
2022/05/31 13:06:01;;;;;;;;;;;;;;;16.48;100.00;146878.19;5073542;28;19938;-79
2022/05/31 13:08:44;;;;;;;;;;;;;;;16.36;100.00;146847.53;5075084;28;19916;-78
2022/05/31 13:19:41;;;;;;;;;;;;;;;16.66;100.00;146921.63;5092932;28;19923;-75
2022/05/31 13:22:08;;;;;;;;;;;;;;;16.74;100.00;146942.06;5075443;28;19923;-76
2022/05/31 13:24:36;;;;;;;;;;;;;;;17.15;100.00;147044.38;5074772;28;19915;-74
2022/05/31 13:27:06;;;;;;;;;;;;;;;17.28;100.00;147075.03;5074328;28;19927;-75
2022/05/31 13:29:31;;;;;;;;;;;;;;;17.26;100.00;147069.91;5074529;28;20268;-78
2022/05/31 13:31:58;;;;;;;;;;;;;;;17.18;100.00;147050.72;5074657;28;19924;-78
2022/05/31 13:34:28;;;;;;;;;;;;;;;16.66;100.00;146921.63;5074439;28;20390;-80
2022/05/31 13:36:53;;;;;;;;;;;;;;;16.99;100.00;147004.72;5075312;28;19912;-78